createdAt,value
2023-11-06T00:02:23.108Z,9.63
2023-11-06T00:04:51.187Z,9.75
2023-11-06T00:07:18.768Z,9.78
2023-11-06T00:09:46.719Z,9.67
2023-11-06T00:12:14.428Z,9.58
2023-11-06T00:14:43.512Z,9.51
2023-11-06T00:17:11.207Z,9.60
2023-11-06T00:19:38.845Z,9.72
2023-11-06T00:22:07.686Z,9.85
2023-11-06T00:24:35.687Z,9.87
2023-11-06T00:27:03.350Z,9.84
2023-11-06T00:29:31.023Z,9.60
2023-11-06T00:32:02.030Z,9.70
2023-11-06T00:34:29.801Z,9.73
2023-11-06T00:36:57.421Z,9.83
2023-11-06T00:39:25.667Z,9.88
2023-11-06T00:41:53.288Z,9.79
2023-11-06T00:44:20.964Z,9.85
2023-11-06T00:46:48.595Z,9.88
2023-11-06T00:49:17.548Z,9.92
2023-11-06T00:51:45.125Z,9.88
2023-11-06T00:54:12.763Z,9.85
2023-11-06T00:56:40.418Z,9.80
2023-11-06T00:59:08.029Z,9.84
2023-11-06T01:01:35.671Z,9.86
2023-11-06T01:04:03.338Z,9.86
2023-11-06T01:06:32.268Z,9.78
2023-11-06T01:08:59.831Z,9.84
2023-11-06T01:11:27.412Z,9.87
2023-11-06T01:13:55.636Z,9.80
2023-11-06T01:16:23.798Z,9.85
2023-11-06T01:18:51.503Z,9.88
2023-11-06T01:21:19.179Z,9.83
2023-11-06T01:23:48.085Z,9.90
2023-11-06T01:26:15.706Z,9.93
2023-11-06T01:28:43.384Z,9.92
2023-11-06T01:31:10.993Z,9.79
2023-11-06T01:33:38.653Z,9.77
2023-11-06T01:36:07.038Z,9.80
2023-11-06T01:38:34.606Z,9.73
2023-11-06T01:41:03.659Z,9.84
2023-11-06T01:43:32.816Z,9.86
2023-11-06T01:46:00.439Z,9.89
2023-11-06T01:48:30.569Z,9.83
2023-11-06T01:50:59.044Z,9.85
2023-11-06T01:53:31.066Z,9.82
2023-11-06T01:55:59.107Z,9.86
2023-11-06T01:58:29.946Z,9.89
2023-11-06T02:00:57.738Z,9.77
2023-11-06T02:03:27.370Z,9.81
2023-11-06T02:05:56.638Z,9.86
2023-11-06T02:08:24.394Z,9.78
2023-11-06T02:10:52.508Z,9.79
2023-11-06T02:13:21.009Z,9.87
2023-11-06T02:15:49.913Z,9.93
2023-11-06T02:18:17.620Z,9.89
2023-11-06T02:20:45.302Z,9.89
2023-11-06T02:23:14.279Z,9.91
2023-11-06T02:25:42.041Z,9.91
2023-11-06T02:28:10.452Z,9.80
2023-11-06T02:30:40.124Z,9.85
2023-11-06T02:33:07.745Z,9.90
2023-11-06T02:35:35.380Z,9.91
2023-11-06T02:38:03.642Z,9.83
2023-11-06T02:40:32.748Z,9.89
2023-11-06T02:43:00.350Z,9.90
2023-11-06T02:45:27.981Z,9.96
2023-11-06T02:47:55.901Z,9.97
2023-11-06T02:50:22.710Z,9.92
2023-11-06T02:52:50.571Z,9.96
2023-11-06T02:55:18.343Z,9.99
2023-11-06T02:57:47.278Z,9.92
2023-11-06T03:00:15.515Z,9.95
2023-11-06T03:02:43.859Z,9.93
2023-11-06T03:05:12.510Z,9.94
2023-11-06T03:07:40.173Z,9.85
2023-11-06T03:10:09.618Z,9.89
2023-11-06T03:12:37.214Z,9.95
2023-11-06T03:15:07.913Z,10.01
2023-11-06T03:17:35.632Z,9.99
2023-11-06T03:20:06.955Z,10.03
2023-11-06T03:22:34.528Z,10.05
2023-11-06T03:25:02.118Z,9.96
2023-11-06T03:27:29.696Z,10.02
2023-11-06T03:29:57.339Z,10.10
2023-11-06T03:32:26.363Z,9.95
2023-11-06T03:34:54.005Z,9.99
2023-11-06T03:37:21.613Z,10.00
2023-11-06T03:39:49.222Z,9.90
2023-11-06T03:42:16.801Z,9.91
2023-11-06T03:44:44.398Z,9.89
2023-11-06T03:47:12.065Z,9.93
2023-11-06T03:49:41.423Z,10.02
2023-11-06T03:52:12.471Z,9.84
2023-11-06T03:54:40.264Z,9.70
2023-11-06T03:57:08.897Z,9.78
2023-11-06T03:59:36.731Z,9.79
2023-11-06T04:02:04.625Z,9.75
2023-11-06T04:04:32.479Z,9.82
2023-11-06T04:07:01.442Z,9.83
2023-11-06T04:09:29.034Z,9.84
2023-11-06T04:11:56.599Z,9.78
2023-11-06T04:14:24.603Z,9.87
2023-11-06T04:16:52.291Z,9.89
2023-11-06T04:19:19.890Z,9.86
2023-11-06T04:21:47.512Z,9.82
2023-11-06T04:24:17.901Z,9.76
2023-11-06T04:26:45.520Z,9.81
2023-11-06T04:29:13.308Z,9.95
2023-11-06T04:31:41.708Z,9.91
2023-11-06T04:34:09.316Z,9.95
2023-11-06T04:36:37.017Z,9.92
2023-11-06T04:39:05.189Z,10.74
2023-11-06T04:41:34.173Z,11.68
2023-11-06T04:44:01.757Z,12.37
2023-11-06T04:46:29.353Z,12.92
2023-11-06T04:48:57.020Z,13.02
2023-11-06T04:51:24.696Z,13.16
2023-11-06T04:53:52.306Z,13.48
2023-11-06T04:56:20.402Z,13.83
2023-11-06T04:58:49.369Z,14.11
2023-11-06T05:01:18.453Z,14.01
2023-11-06T05:03:46.152Z,13.58
2023-11-06T05:06:13.826Z,13.53
2023-11-06T05:08:41.453Z,13.01
2023-11-06T05:11:09.117Z,12.88
2023-11-06T05:13:36.714Z,12.30
2023-11-06T05:16:06.548Z,13.49
2023-11-06T05:18:34.307Z,13.71
2023-11-06T05:21:02.130Z,13.62
2023-11-06T05:23:29.867Z,13.26
2023-11-06T05:25:57.787Z,13.63
2023-11-06T05:28:25.491Z,13.88
2023-11-06T05:30:53.037Z,14.08
2023-11-06T05:33:22.052Z,14.30
2023-11-06T05:35:49.697Z,14.32
2023-11-06T05:38:17.429Z,14.38
2023-11-06T05:40:45.016Z,14.19
2023-11-06T05:43:12.835Z,14.30
2023-11-06T05:45:40.491Z,14.34
2023-11-06T05:48:08.183Z,14.54
2023-11-06T05:50:37.412Z,14.58
2023-11-06T05:53:05.840Z,14.61
2023-11-06T05:55:33.953Z,14.65
2023-11-06T05:58:02.253Z,14.58
2023-11-06T06:00:31.998Z,14.67
2023-11-06T06:03:02.042Z,14.85
2023-11-06T06:05:29.740Z,14.99
2023-11-06T06:07:58.872Z,15.07
2023-11-06T06:10:26.636Z,14.98
2023-11-06T06:12:54.331Z,14.72
2023-11-06T06:15:21.867Z,14.77
2023-11-06T06:17:49.555Z,14.82
2023-11-06T06:20:17.205Z,14.59
2023-11-06T06:22:44.898Z,13.50
2023-11-06T06:25:14.149Z,12.80
2023-11-06T06:27:41.767Z,12.30
2023-11-06T06:30:10.769Z,11.92
2023-11-06T06:32:38.780Z,11.67
2023-11-06T06:35:07.335Z,11.51
2023-11-06T06:37:35.007Z,11.40
2023-11-06T06:40:07.258Z,11.31
2023-11-06T06:42:36.678Z,11.20
2023-11-06T06:45:05.778Z,11.15
2023-11-06T06:47:33.658Z,11.02
2023-11-06T06:50:01.595Z,10.94
2023-11-06T06:52:29.798Z,10.92
2023-11-06T06:54:57.447Z,10.91
2023-11-06T06:57:25.039Z,10.84
2023-11-06T06:59:54.169Z,10.81
2023-11-06T07:02:21.769Z,10.78
2023-11-06T07:04:49.466Z,10.75
2023-11-06T07:07:17.179Z,10.75
2023-11-06T07:09:44.805Z,10.77
2023-11-06T07:12:15.140Z,10.80
2023-11-06T07:14:42.835Z,10.83
2023-11-06T07:17:11.754Z,10.84
2023-11-06T07:19:39.460Z,10.84
2023-11-06T07:22:07.588Z,10.82
2023-11-06T07:24:36.078Z,10.83
2023-11-06T07:27:05.026Z,10.81
2023-11-06T07:29:32.849Z,10.87
2023-11-06T07:32:00.508Z,10.88
2023-11-06T07:34:29.489Z,10.86
2023-11-06T07:36:57.257Z,10.84
2023-11-06T07:39:24.870Z,10.90
2023-11-06T07:41:52.484Z,10.93
2023-11-06T07:44:20.126Z,10.93
2023-11-06T07:46:47.743Z,10.94
2023-11-06T07:49:15.400Z,10.96
2023-11-06T07:51:44.424Z,10.90
2023-11-06T07:54:12.083Z,10.94
2023-11-06T07:56:39.732Z,10.98
2023-11-06T07:59:07.416Z,10.80
2023-11-06T08:01:35.318Z,10.95
2023-11-06T08:04:03.663Z,10.87
2023-11-06T08:06:31.379Z,10.92
2023-11-06T08:09:00.374Z,10.84
2023-11-06T08:11:27.976Z,10.89
2023-11-06T08:13:55.621Z,10.97
2023-11-06T08:16:23.195Z,11.02
2023-11-06T08:18:51.066Z,11.14
2023-11-06T08:21:18.714Z,11.25
2023-11-06T08:23:46.317Z,11.36
2023-11-06T08:26:15.584Z,11.50
2023-11-06T08:28:43.286Z,11.66
2023-11-06T08:31:11.311Z,11.65
2023-11-06T08:33:39.211Z,11.56
2023-11-06T08:36:08.256Z,11.54
2023-11-06T08:38:36.825Z,11.41
2023-11-06T08:41:08.503Z,11.52
2023-11-06T08:43:38.004Z,11.73
2023-11-06T08:46:06.374Z,11.83
2023-11-06T08:48:34.872Z,11.85
2023-11-06T08:51:02.576Z,11.91
2023-11-06T08:53:30.963Z,11.95
2023-11-06T08:55:58.690Z,11.90
2023-11-06T08:58:26.433Z,11.77
2023-11-06T09:00:55.478Z,11.95
2023-11-06T09:03:23.696Z,12.11
2023-11-06T09:05:51.571Z,12.28
2023-11-06T09:08:19.474Z,12.41
2023-11-06T09:10:47.137Z,12.41
2023-11-06T09:13:14.789Z,12.47
2023-11-06T09:15:42.573Z,12.56
2023-11-06T09:18:12.416Z,12.66
2023-11-06T09:20:40.093Z,12.71
2023-11-06T09:23:08.312Z,12.91
2023-11-06T09:25:36.177Z,12.95
2023-11-06T09:28:03.932Z,12.97
2023-11-06T09:30:31.542Z,13.07
2023-11-06T09:33:00.973Z,12.97
2023-11-06T09:35:30.453Z,13.12
2023-11-06T09:37:58.060Z,13.29
2023-11-06T09:40:26.505Z,12.91
2023-11-06T09:42:54.254Z,13.07
2023-11-06T09:45:21.955Z,12.92
2023-11-06T09:47:51.730Z,12.84
2023-11-06T09:50:21.700Z,13.19
2023-11-06T09:52:51.613Z,12.59
2023-11-06T09:55:20.589Z,12.33
2023-11-06T09:57:50.534Z,12.05
2023-11-06T10:00:19.123Z,11.98
2023-11-06T10:02:50.070Z,12.10
2023-11-06T10:05:21.481Z,12.21
2023-11-06T10:07:53.799Z,12.18
2023-11-06T10:10:23.428Z,12.33
2023-11-06T10:13:02.981Z,12.40
2023-11-06T10:15:31.184Z,12.71
2023-11-06T10:18:13.876Z,12.73
2023-11-06T10:20:45.718Z,12.53
2023-11-06T10:23:23.241Z,12.41
2023-11-06T10:25:51.028Z,12.30
2023-11-06T10:28:19.685Z,12.42
2023-11-06T10:30:48.867Z,12.61
2023-11-06T10:33:18.000Z,12.67
2023-11-06T10:35:46.528Z,12.95
2023-11-06T10:38:30.731Z,13.33
2023-11-06T10:41:00.420Z,13.23
2023-11-06T10:43:28.527Z,12.86
2023-11-06T10:45:57.300Z,13.06
2023-11-06T10:48:35.912Z,13.36
2023-11-06T10:51:05.840Z,13.26
2023-11-06T10:53:37.847Z,12.89
2023-11-06T10:56:07.728Z,12.99
2023-11-06T10:58:37.423Z,12.78
2023-11-06T11:01:08.984Z,12.86
2023-11-06T11:03:38.830Z,12.73
2023-11-06T11:06:10.492Z,12.55
2023-11-06T11:08:40.090Z,12.43
2023-11-06T11:11:10.445Z,12.60
2023-11-06T11:13:38.921Z,12.44
2023-11-06T11:16:40.171Z,12.56
2023-11-06T11:19:22.043Z,12.63
2023-11-06T11:22:02.681Z,12.78
2023-11-06T11:24:54.169Z,12.89
2023-11-06T11:27:23.834Z,12.93
2023-11-06T11:30:28.428Z,13.03
2023-11-06T11:32:57.638Z,12.89
2023-11-06T11:35:58.773Z,12.88
2023-11-06T11:38:34.620Z,12.72
2023-11-06T11:41:16.781Z,12.90
2023-11-06T11:43:45.303Z,12.90
2023-11-06T11:46:56.298Z,13.00
2023-11-06T11:49:46.443Z,12.89
2023-11-06T11:52:38.362Z,13.03
2023-11-06T11:55:32.383Z,13.17
2023-11-06T11:58:07.241Z,13.12
2023-11-06T12:00:36.653Z,13.07
2023-11-06T12:03:09.143Z,12.65
2023-11-06T12:05:38.699Z,12.71
2023-11-06T12:08:17.011Z,12.76
2023-11-06T12:10:45.624Z,13.43
2023-11-06T12:13:19.017Z,13.18
2023-11-06T12:15:48.275Z,13.72
2023-11-06T12:18:17.780Z,14.00
2023-11-06T12:20:47.224Z,14.06
2023-11-06T12:23:14.976Z,14.00
2023-11-06T12:25:43.024Z,13.96
2023-11-06T12:28:12.427Z,13.81
2023-11-06T12:30:43.915Z,13.70
2023-11-06T12:33:13.374Z,13.62
2023-11-06T12:35:41.802Z,13.65
2023-11-06T12:38:09.545Z,13.66
2023-11-06T12:40:43.508Z,13.57
2023-11-06T12:43:14.215Z,13.60
2023-11-06T12:45:45.010Z,13.80
2023-11-06T12:48:27.903Z,14.33
2023-11-06T12:51:01.018Z,14.31
2023-11-06T12:53:29.999Z,14.24
2023-11-06T12:55:57.853Z,14.30
2023-11-06T12:58:25.898Z,14.14
2023-11-06T13:00:57.341Z,14.10
2023-11-06T13:03:26.537Z,13.97
2023-11-06T13:05:57.735Z,13.86
2023-11-06T13:08:25.810Z,14.23
2023-11-06T13:10:53.668Z,14.96
2023-11-06T13:13:21.336Z,15.92
2023-11-06T13:15:49.145Z,16.32
2023-11-06T13:18:18.752Z,17.06
2023-11-06T13:20:49.318Z,17.19
2023-11-06T13:23:17.431Z,17.53
2023-11-06T13:25:45.076Z,17.56
2023-11-06T13:28:12.768Z,17.48
2023-11-06T13:30:40.903Z,18.19
2023-11-06T13:33:09.971Z,18.13
2023-11-06T13:35:40.311Z,17.81
2023-11-06T13:38:09.351Z,17.27
2023-11-06T13:40:38.259Z,16.82
2023-11-06T13:43:07.688Z,16.59
2023-11-06T13:45:35.355Z,16.11
2023-11-06T13:48:10.007Z,15.98
2023-11-06T13:50:47.841Z,16.35
2023-11-06T13:53:23.708Z,16.36
2023-11-06T13:56:08.028Z,16.35
2023-11-06T13:58:38.306Z,16.72
2023-11-06T14:01:09.502Z,17.34
2023-11-06T14:03:37.646Z,16.97
2023-11-06T14:06:09.575Z,16.72
2023-11-06T14:08:38.851Z,16.60
2023-11-06T14:11:06.783Z,16.96
2023-11-06T14:13:34.598Z,16.77
2023-11-06T14:16:02.223Z,16.02
2023-11-06T14:18:30.131Z,15.94
2023-11-06T14:20:58.752Z,15.89
2023-11-06T14:23:29.803Z,15.61
2023-11-06T14:25:59.454Z,15.37
2023-11-06T14:28:28.411Z,15.22
2023-11-06T14:30:56.157Z,15.15
2023-11-06T14:33:25.849Z,14.94
2023-11-06T14:35:54.957Z,14.86
2023-11-06T14:38:28.244Z,14.70
2023-11-06T14:40:57.736Z,14.46
2023-11-06T14:43:25.423Z,14.43
2023-11-06T14:45:53.284Z,14.40
2023-11-06T14:48:22.119Z,14.30
2023-11-06T14:50:50.029Z,14.19
2023-11-06T14:53:27.561Z,14.05
2023-11-06T14:56:06.154Z,13.89
2023-11-06T14:58:34.197Z,13.84
2023-11-06T15:01:01.769Z,13.65
2023-11-06T15:03:30.290Z,13.34
2023-11-06T15:06:00.430Z,13.36
2023-11-06T15:08:29.490Z,13.27
2023-11-06T15:10:57.187Z,13.23
2023-11-06T15:13:26.089Z,13.17
2023-11-06T15:15:55.704Z,13.07
2023-11-06T15:18:23.694Z,13.06
2023-11-06T15:20:51.554Z,12.87
2023-11-06T15:23:19.220Z,12.75
2023-11-06T15:25:46.796Z,12.86
2023-11-06T15:28:14.691Z,12.93
2023-11-06T15:30:44.312Z,12.95
2023-11-06T15:33:12.080Z,12.91
2023-11-06T15:35:39.934Z,12.91
2023-11-06T15:38:07.587Z,12.89
2023-11-06T15:40:35.207Z,12.59
2023-11-06T15:43:02.838Z,12.62
2023-11-06T15:45:30.495Z,12.60
2023-11-06T15:47:59.571Z,12.63
2023-11-06T15:50:31.078Z,12.64
2023-11-06T15:52:59.364Z,12.62
2023-11-06T15:55:27.119Z,12.57
2023-11-06T15:57:54.765Z,12.51
2023-11-06T16:00:22.890Z,12.53
2023-11-06T16:02:50.759Z,12.47
2023-11-06T16:05:19.856Z,12.47
2023-11-06T16:07:48.344Z,12.39
2023-11-06T16:10:16.162Z,12.37
2023-11-06T16:12:43.915Z,12.36
2023-11-06T16:15:11.786Z,12.33
2023-11-06T16:17:40.783Z,12.22
2023-11-06T16:20:10.022Z,12.27
2023-11-06T16:22:39.050Z,12.26
2023-11-06T16:25:07.617Z,12.24
2023-11-06T16:27:35.281Z,12.21
2023-11-06T16:30:05.630Z,12.06
2023-11-06T16:32:33.325Z,12.08
2023-11-06T16:35:01.459Z,12.16
2023-11-06T16:37:29.073Z,12.01
2023-11-06T16:39:58.016Z,12.08
2023-11-06T16:42:28.984Z,12.07
2023-11-06T16:44:57.314Z,11.63
2023-11-06T16:47:24.992Z,11.49
2023-11-06T16:49:52.697Z,11.27
2023-11-06T16:52:20.278Z,11.77
2023-11-06T16:54:47.882Z,11.54
2023-11-06T16:57:17.050Z,11.31
2023-11-06T16:59:44.745Z,11.29
2023-11-06T17:02:12.387Z,11.30
2023-11-06T17:04:40.131Z,11.24
2023-11-06T17:07:07.703Z,11.20
2023-11-06T17:09:36.789Z,11.15
2023-11-06T17:12:05.685Z,11.36
2023-11-06T17:14:34.670Z,11.46
2023-11-06T17:17:04.600Z,11.33
2023-11-06T17:19:32.491Z,11.17
2023-11-06T17:22:00.133Z,11.02
2023-11-06T17:24:28.557Z,10.83
2023-11-06T17:26:56.510Z,10.69
2023-11-06T17:29:24.171Z,10.75
2023-11-06T17:31:54.384Z,11.68
2023-11-06T17:34:23.957Z,12.36
2023-11-06T17:36:53.889Z,12.52
2023-11-06T17:39:22.022Z,11.78
2023-11-06T17:41:50.034Z,11.28
2023-11-06T17:44:18.592Z,10.93
2023-11-06T17:46:47.987Z,10.91
2023-11-06T17:49:18.510Z,10.83
2023-11-06T17:51:47.503Z,10.79
2023-11-06T17:54:17.778Z,10.88
2023-11-06T17:56:45.473Z,10.73
2023-11-06T17:59:13.086Z,10.87
2023-11-06T18:01:40.792Z,10.76
2023-11-06T18:04:09.669Z,10.47
2023-11-06T18:06:38.730Z,11.49
2023-11-06T18:09:06.744Z,11.65
2023-11-06T18:11:34.606Z,10.70
2023-11-06T18:14:04.526Z,10.33
2023-11-06T18:16:33.665Z,10.07
2023-11-06T18:19:01.794Z,10.06
2023-11-06T18:21:32.535Z,10.05
2023-11-06T18:24:01.662Z,9.95
2023-11-06T18:26:29.258Z,10.08
2023-11-06T18:28:56.856Z,9.71
2023-11-06T18:31:25.580Z,9.89
2023-11-06T18:33:56.150Z,9.63
2023-11-06T18:36:24.390Z,9.87
2023-11-06T18:38:52.107Z,9.94
2023-11-06T18:41:22.050Z,9.60
2023-11-06T18:43:49.747Z,9.55
2023-11-06T18:46:17.404Z,9.40
2023-11-06T18:48:45.545Z,9.39
2023-11-06T18:51:14.721Z,9.15
2023-11-06T18:53:45.281Z,9.77
2023-11-06T18:56:12.920Z,10.60
2023-11-06T18:58:41.884Z,11.95
2023-11-06T19:01:09.930Z,11.01
2023-11-06T19:03:37.605Z,11.16
2023-11-06T19:06:15.388Z,10.81
2023-11-06T19:08:48.316Z,10.53
2023-11-06T19:11:15.949Z,10.28
2023-11-06T19:13:44.906Z,9.87
2023-11-06T19:16:14.821Z,9.87
2023-11-06T19:18:44.378Z,9.74
2023-11-06T19:21:12.138Z,9.63
2023-11-06T19:23:39.781Z,9.66
2023-11-06T19:26:07.844Z,10.32
2023-11-06T19:28:35.544Z,11.60
2023-11-06T19:31:05.655Z,12.22
2023-11-06T19:33:33.612Z,12.52
2023-11-06T19:36:01.394Z,11.71
2023-11-06T19:38:30.516Z,10.93
2023-11-06T19:41:01.513Z,10.71
2023-11-06T19:43:29.333Z,10.53
2023-11-06T19:46:00.264Z,11.23
2023-11-06T19:48:29.388Z,12.06
2023-11-06T19:50:59.736Z,12.13
2023-11-06T19:53:27.593Z,12.75
2023-11-06T19:55:55.190Z,12.90
2023-11-06T19:58:22.834Z,13.12
2023-11-06T20:00:50.808Z,12.82
2023-11-06T20:03:19.419Z,12.95
2023-11-06T20:05:48.416Z,12.74
2023-11-06T20:08:17.653Z,13.20
2023-11-06T20:10:45.428Z,12.65
2023-11-06T20:13:13.281Z,11.71
2023-11-06T20:15:41.101Z,11.10
2023-11-06T20:18:08.867Z,10.66
2023-11-06T20:20:36.661Z,10.48
2023-11-06T20:23:05.750Z,10.21
2023-11-06T20:25:33.413Z,10.15
2023-11-06T20:28:01.034Z,9.85
2023-11-06T20:30:28.815Z,9.87
2023-11-06T20:32:56.646Z,9.72
2023-11-06T20:35:25.027Z,9.52
2023-11-06T20:37:52.686Z,9.54
2023-11-06T20:40:21.837Z,9.35
2023-11-06T20:42:49.456Z,9.34
2023-11-06T20:45:17.434Z,9.26
2023-11-06T20:47:45.171Z,9.30
2023-11-06T20:50:13.620Z,9.24
2023-11-06T20:52:42.100Z,9.29
2023-11-06T20:55:10.478Z,9.29
2023-11-06T20:57:39.644Z,9.35
2023-11-06T21:00:09.798Z,9.14
2023-11-06T21:02:40.026Z,9.31
2023-11-06T21:05:09.732Z,9.39
2023-11-06T21:07:37.638Z,9.45
2023-11-06T21:10:06.474Z,9.44
2023-11-06T21:12:34.108Z,8.89
2023-11-06T21:15:03.859Z,8.88
2023-11-06T21:17:31.737Z,8.88
2023-11-06T21:19:59.417Z,9.07
2023-11-06T21:22:27.859Z,9.12
2023-11-06T21:24:58.115Z,9.22
2023-11-06T21:27:25.767Z,9.21
2023-11-06T21:29:53.558Z,9.30
2023-11-06T21:32:22.924Z,9.29
2023-11-06T21:34:53.911Z,9.28
2023-11-06T21:37:22.131Z,9.32
2023-11-06T21:39:49.815Z,9.31
2023-11-06T21:42:17.629Z,9.13
2023-11-06T21:44:45.410Z,9.11
2023-11-06T21:47:14.608Z,9.14
2023-11-06T21:49:44.691Z,9.07
2023-11-06T21:52:12.766Z,9.05
2023-11-06T21:54:51.089Z,9.10
2023-11-06T21:57:22.441Z,9.14
2023-11-06T21:59:50.327Z,9.12
2023-11-06T22:02:18.268Z,9.07
2023-11-06T22:04:47.463Z,9.08
2023-11-06T22:07:15.858Z,8.98
2023-11-06T22:09:43.489Z,8.86
2023-11-06T22:12:11.379Z,8.95
2023-11-06T22:14:39.378Z,8.93
2023-11-06T22:17:07.762Z,8.86
2023-11-06T22:19:35.949Z,8.86
2023-11-06T22:22:06.112Z,8.82
2023-11-06T22:24:33.841Z,8.77
2023-11-06T22:27:01.626Z,8.85
2023-11-06T22:29:29.334Z,8.99
2023-11-06T22:31:57.303Z,8.98
2023-11-06T22:34:25.463Z,8.99
2023-11-06T22:36:53.246Z,8.94
2023-11-06T22:39:22.257Z,8.99
2023-11-06T22:41:49.868Z,8.97
2023-11-06T22:44:19.138Z,8.92
2023-11-06T22:46:46.745Z,8.88
2023-11-06T22:49:14.390Z,8.99
2023-11-06T22:51:42.102Z,9.03
2023-11-06T22:54:09.720Z,8.97
2023-11-06T22:56:38.706Z,9.05
2023-11-06T22:59:06.581Z,8.93
2023-11-06T23:01:34.233Z,8.85
2023-11-06T23:04:02.696Z,8.92
2023-11-06T23:06:30.482Z,9.09
2023-11-06T23:08:58.647Z,9.08
2023-11-06T23:11:26.613Z,9.12
2023-11-06T23:13:55.726Z,9.17
2023-11-06T23:16:23.385Z,9.19
2023-11-06T23:18:51.098Z,9.27
2023-11-06T23:21:19.012Z,9.29
2023-11-06T23:23:47.095Z,9.29
2023-11-06T23:26:14.934Z,9.20
2023-11-06T23:28:42.532Z,9.21
2023-11-06T23:31:11.973Z,9.19
2023-11-06T23:33:40.177Z,9.12
2023-11-06T23:36:09.422Z,9.20
2023-11-06T23:38:37.088Z,9.23
2023-11-06T23:41:04.933Z,9.24
2023-11-06T23:43:32.520Z,9.21
2023-11-06T23:46:00.145Z,9.18
2023-11-06T23:48:29.207Z,9.17
2023-11-06T23:50:57.030Z,9.13
2023-11-06T23:53:24.674Z,9.07
2023-11-06T23:55:52.414Z,9.07
2023-11-06T23:58:20.121Z,9.04
